Aérodrome :
LOGIN :

S'inscrire | Disclaimer

   EN    FR    IT 

 










Légende :    VFR   VFR Marginal   IFR   IFR Intensif   IFR Très Intensif
Visi : 
Plafond : 
>= 8 km
>= 3000ft
5 à 8 km
1000 à 3000 ft
1500m à 5 km
500 à 1000 ft
800 à 1500m
200 à 500 ft
< 800m
< 200 ft
Symboles :   Orages  Brouillard  Fortes neiges  Fortes précipitations  Vent > 20 kt
SIGMETs :   Divers  Orages  Givrage  Turbulence  Onde Orograph.  Cendres Volcan.






- Altitude de l'aérodrome : 580 ft


LFOA - Avord

DERNIER METAR :
  • 260200Z AUTO 27011KT CAVOK 07/05 Q1012

METARs EXPIRÉS :
  • 260130Z AUTO 27010KT CAVOK 08/05 Q1012
  • 260100Z AUTO 28011KT CAVOK 08/05 Q1012
  • 260030Z AUTO 27011KT CAVOK 08/05 Q1012
  • 260000Z AUTO 27010KT CAVOK 08/05 Q1012
  • 252330Z AUTO 27012KT 9999 FEW048 09/05 Q1012

TAF TAF LFOA
Valide du 25 à 15h jusqu'au 26 à 15h UTC


251400Z 2515/2615 28010G20KT 9999 BKN025 BKN040
TEMPO 2515/2520 28015G30KT 3000 SHRA SCT010 BKN040CB
PROB40 2515/2517 33020G35KT 1400 TSRA
PROB30
TEMPO 2603/2607 3000 BR BKN009
TEMPO 2607/2615 31015G30KT 4000 SHRA SCT010 BKN020CB



MET'MAP, la Météo Aéronautique d'un coup d'oeil ! - Copyright ORBIFLY Décembre 2007 - Disclaimer

ORBIFLY MET'MAP TEAM :

Programmation & Développement : Alexandra Zaïnal
Sur une idée originale de : Baudouin d'Aumeries
Assistance à la programmation : Marc-Olivier Méhu
Soutien technique & logistique : Manuel Goepfert

Contact : metmap@orbifly.com




SOURCES & CREDITS :

   NOAA